Time;durP1;ratioP1;P1;durP2;ratioP2;P2;SDS_P1;SDS_P2;PMS_P1;PMS_P2;Temp;Humidity;BMP_temperature;BMP_pressure;BME280_temperature;BME280_humidity;BME280_pressure;Samples;Min_cycle;Max_cycle;Signal;HPM_P1;HPM_P2
2022/11/19 00:01:08;;;;;;;15.90;12.93;;;1.30;99.90;;;;;;5064193;28;20045;-54
2022/11/19 00:03:35;;;;;;;13.38;10.32;;;1.30;99.90;;;;;;5047300;28;20379;-53
2022/11/19 00:06:04;;;;;;;13.32;11.18;;;1.20;99.90;;;;;;5061227;28;20747;-54
2022/11/19 00:08:30;;;;;;;15.88;13.38;;;1.20;99.90;;;;;;5062090;28;20032;-49
2022/11/19 00:11:05;;;;;;;16.65;14.60;;;1.30;99.90;;;;;;5060261;28;20099;-50
2022/11/19 00:13:31;;;;;;;15.35;10.93;;;1.20;99.90;;;;;;5060696;28;20500;-50
2022/11/19 00:16:09;;;;;;;17.63;14.35;;;1.20;99.90;;;;;;5057973;28;20040;-49
2022/11/19 00:18:34;;;;;;;10.93;9.00;;;1.20;99.90;;;;;;5060279;28;20131;-54
2022/11/19 00:21:13;;;;;;;13.10;11.38;;;1.20;99.90;;;;;;5057544;28;20047;-50
2022/11/19 00:23:39;;;;;;;15.27;12.77;;;1.20;99.90;;;;;;5059547;28;20044;-54
2022/11/19 00:26:07;;;;;;;16.13;12.57;;;1.20;99.90;;;;;;5044535;28;20056;-51
2022/11/19 00:28:33;;;;;;;14.82;11.35;;;1.20;99.90;;;;;;5065424;28;20044;-54
2022/11/19 00:31:07;;;;;;;13.07;11.38;;;1.20;99.90;;;;;;5068487;28;20053;-50
2022/11/19 00:33:34;;;;;;;15.57;13.80;;;1.20;99.90;;;;;;5064643;28;20076;-50
2022/11/19 00:36:00;;;;;;;14.20;11.35;;;1.20;99.90;;;;;;5069818;28;20041;-51
2022/11/19 00:38:27;;;;;;;13.35;11.27;;;1.20;99.90;;;;;;5073559;28;20041;-50
2022/11/19 00:40:53;;;;;;;15.35;11.98;;;1.20;99.90;;;;;;5055065;28;20055;-50
2022/11/19 00:46:04;;;;;;;15.13;12.95;;;1.20;99.90;;;;;;5070505;28;20049;-50
2022/11/19 00:48:29;;;;;;;15.30;11.68;;;1.20;99.90;;;;;;5073259;28;20483;-49
2022/11/19 00:50:55;;;;;;;16.35;12.98;;;1.10;99.90;;;;;;5073346;28;20086;-53
2022/11/19 00:53:21;;;;;;;11.70;9.07;;;1.20;99.90;;;;;;5073434;28;20047;-50
2022/11/19 00:55:46;;;;;;;14.18;11.10;;;1.20;99.90;;;;;;5073371;28;20036;-50
2022/11/19 00:58:12;;;;;;;14.85;13.25;;;1.10;99.90;;;;;;5070292;28;20898;-50
2022/11/19 01:00:38;;;;;;;14.50;11.15;;;1.10;99.90;;;;;;5062017;28;21218;-52
2022/11/19 01:03:04;;;;;;;13.23;10.52;;;1.10;99.90;;;;;;5062569;28;20052;-50
2022/11/19 01:05:30;;;;;;;15.40;12.55;;;1.10;99.90;;;;;;5062383;28;20049;-49
2022/11/19 01:07:56;;;;;;;12.20;10.15;;;1.00;99.90;;;;;;5067008;28;20037;-49
2022/11/19 01:10:22;;;;;;;15.13;12.27;;;1.00;99.90;;;;;;5066125;28;20093;-52
2022/11/19 01:15:51;;;;;;;12.23;9.77;;;1.00;99.90;;;;;;5019732;28;20049;-50
2022/11/19 01:18:17;;;;;;;11.80;8.43;;;1.00;99.90;;;;;;5008593;28;20524;-52
2022/11/19 01:20:44;;;;;;;11.70;9.45;;;1.00;99.90;;;;;;5023322;28;20049;-53
2022/11/19 01:23:09;;;;;;;11.57;9.27;;;1.00;99.90;;;;;;5023401;28;20403;-49
2022/11/19 01:25:35;;;;;;;12.10;9.98;;;1.00;99.90;;;;;;5025849;28;20065;-53
2022/11/19 01:28:01;;;;;;;11.93;9.50;;;0.90;99.90;;;;;;5022644;28;20095;-54
2022/11/19 01:30:27;;;;;;;9.07;7.93;;;0.90;99.90;;;;;;5023632;28;20045;-50
2022/11/19 01:32:53;;;;;;;9.10;6.47;;;0.90;99.90;;;;;;5022145;28;20632;-51
2022/11/19 01:35:18;;;;;;;10.85;9.18;;;0.90;99.90;;;;;;5020960;28;20480;-50
2022/11/19 01:37:44;;;;;;;10.77;9.60;;;0.90;99.90;;;;;;5022962;28;20555;-49
2022/11/19 01:40:10;;;;;;;10.18;8.73;;;0.90;99.90;;;;;;5020549;28;20072;-50
2022/11/19 01:42:52;;;;;;;10.77;8.38;;;0.90;99.90;;;;;;5021811;28;20133;-54
2022/11/19 01:45:48;;;;;;;10.85;9.18;;;0.90;99.90;;;;;;5020521;28;20156;-51
2022/11/19 01:48:33;;;;;;;8.77;6.72;;;0.90;99.90;;;;;;5061747;28;20064;-53
2022/11/19 01:51:17;;;;;;;9.27;8.25;;;0.80;99.90;;;;;;5057218;28;20028;-52
2022/11/19 01:53:44;;;;;;;8.27;6.65;;;0.90;99.90;;;;;;5059908;28;20068;-52
2022/11/19 01:56:11;;;;;;;8.52;7.63;;;0.80;99.90;;;;;;5038454;28;20589;-50
2022/11/19 01:58:40;;;;;;;10.10;8.48;;;0.80;99.90;;;;;;5054708;28;20044;-49
2022/11/19 02:01:08;;;;;;;17.17;7.93;;;0.80;99.90;;;;;;5055738;28;20029;-51
2022/11/19 02:03:36;;;;;;;8.98;7.88;;;0.70;99.90;;;;;;5055149;28;20428;-52
2022/11/19 02:06:02;;;;;;;8.80;7.20;;;0.70;99.90;;;;;;5054876;28;20400;-52
2022/11/19 02:08:34;;;;;;;7.05;6.28;;;0.70;99.90;;;;;;5057405;28;20061;-50
2022/11/19 02:11:08;;;;;;;9.23;7.38;;;0.70;99.90;;;;;;5058405;28;20037;-53
2022/11/19 02:13:46;;;;;;;10.27;8.20;;;0.70;99.90;;;;;;5033292;28;20037;-50
2022/11/19 02:16:26;;;;;;;5.97;5.40;;;0.60;99.90;;;;;;5062883;28;20624;-49
2022/11/19 02:19:10;;;;;;;7.22;6.10;;;0.60;99.90;;;;;;5063295;28;20066;-52
2022/11/19 02:22:02;;;;;;;7.90;5.43;;;0.60;99.90;;;;;;5066592;28;20052;-49
2022/11/19 02:24:51;;;;;;;9.27;5.32;;;0.60;99.90;;;;;;5065801;28;20726;-51
2022/11/19 02:27:51;;;;;;;7.13;6.38;;;0.60;99.90;;;;;;5066721;28;20490;-53
2022/11/19 02:30:18;;;;;;;7.80;6.70;;;0.50;99.90;;;;;;5061098;28;20064;-51
2022/11/19 02:32:55;;;;;;;9.20;6.80;;;0.50;99.90;;;;;;5072819;28;20091;-51
2022/11/19 02:35:58;;;;;;;9.05;6.15;;;0.50;99.90;;;;;;5064491;28;20056;-53
2022/11/19 02:38:27;;;;;;;8.95;6.72;;;0.40;99.90;;;;;;5055570;28;20095;-52
2022/11/19 02:41:32;;;;;;;8.55;7.13;;;0.40;99.90;;;;;;5065305;28;20041;-51
2022/11/19 02:44:57;;;;;;;6.90;4.20;;;0.40;99.90;;;;;;5066935;28;20077;-52
2022/11/19 02:46:39;;;;;;;6.85;5.55;;;0.30;99.90;;;;;;5070413;28;20052;-53
2022/11/19 02:49:07;;;;;;;7.32;6.40;;;0.30;99.90;;;;;;5067486;28;20124;-52
2022/11/19 02:51:33;;;;;;;;;;;0.30;99.90;;;;;;5061091;28;20032;-52
2022/11/19 02:53:59;;;;;;;7.35;5.97;;;0.20;99.90;;;;;;5060180;28;20006;-51
2022/11/19 02:57:03;;;;;;;6.97;6.25;;;0.20;99.90;;;;;;5060896;28;20083;-49
2022/11/19 03:05:10;;;;;;;8.38;5.85;;;0.10;99.90;;;;;;4963869;28;20051;-50
2022/11/19 03:07:36;;;;;;;8.73;5.75;;;0.00;99.90;;;;;;4960664;28;20047;-53
2022/11/19 03:10:06;;;;;;;6.60;4.93;;;0.00;99.90;;;;;;4960946;28;20062;-53
2022/11/19 03:18:49;;;;;;;9.60;7.45;;;-0.20;99.90;;;;;;4965852;28;20047;-50
2022/11/19 03:21:27;;;;;;;8.05;5.70;;;-0.20;99.90;;;;;;4961175;28;20457;-51
2022/11/19 03:24:17;;;;;;;9.18;6.28;;;-0.20;99.90;;;;;;4964583;28;20419;-51
2022/11/19 03:26:45;;;;;;;8.75;6.68;;;-0.30;99.90;;;;;;4959478;28;20054;-53
2022/11/19 03:29:13;;;;;;;10.38;7.05;;;-0.30;99.90;;;;;;4968160;28;20054;-49
2022/11/19 03:31:44;;;;;;;8.68;6.53;;;-0.30;99.90;;;;;;5058912;28;20111;-50
2022/11/19 03:34:16;;;;;;;9.25;6.63;;;-0.40;99.90;;;;;;5067015;28;20037;-51
2022/11/19 03:36:44;;;;;;;9.50;7.20;;;-0.40;99.90;;;;;;5045557;28;20528;-50
2022/11/19 03:39:14;;;;;;;8.07;7.03;;;-0.40;99.90;;;;;;5057220;28;20040;-52
2022/11/19 03:41:42;;;;;;;8.90;6.50;;;-0.40;99.90;;;;;;5045131;28;20048;-52
2022/11/19 03:44:23;;;;;;;7.22;4.78;;;-0.50;99.90;;;;;;5063726;28;20033;-49
2022/11/19 03:46:54;;;;;;;8.43;5.80;;;-0.50;99.90;;;;;;5063810;28;20523;-51
2022/11/19 03:49:26;;;;;;;7.70;5.65;;;-0.50;99.90;;;;;;5064285;28;20041;-51
2022/11/19 03:52:03;;;;;;;8.60;6.07;;;-0.50;99.90;;;;;;5067655;28;20059;-52
2022/11/19 03:54:29;;;;;;;11.48;8.02;;;-0.50;99.90;;;;;;5044093;28;20036;-52
2022/11/19 03:56:57;;;;;;;10.57;7.80;;;-0.60;99.90;;;;;;5068614;28;20098;-50
2022/11/19 03:59:23;;;;;;;9.38;7.60;;;-0.60;99.90;;;;;;5070114;28;20394;-51
2022/11/19 04:01:51;;;;;;;12.38;9.27;;;-0.60;99.90;;;;;;5068988;28;20436;-50
2022/11/19 04:07:02;;;;;;;12.45;8.57;;;-0.70;99.90;;;;;;5067060;28;20429;-51
2022/11/19 04:09:27;;;;;;;9.90;7.80;;;-0.70;99.90;;;;;;5069312;28;20090;-51
2022/11/19 04:11:53;;;;;;;10.40;8.10;;;-0.80;99.90;;;;;;5069070;28;20029;-51
2022/11/19 04:14:18;;;;;;;11.27;7.82;;;-0.80;99.90;;;;;;5050107;28;20441;-52
2022/11/19 04:16:44;;;;;;;10.45;6.38;;;-0.70;99.90;;;;;;5051485;28;20036;-51
2022/11/19 04:19:10;;;;;;;10.88;8.38;;;-0.80;99.90;;;;;;5049106;28;20513;-50
2022/11/19 04:21:35;;;;;;;12.88;7.57;;;-0.80;99.90;;;;;;5067433;28;20044;-53
2022/11/19 04:24:01;;;;;;;11.60;8.90;;;-0.80;99.90;;;;;;5067903;28;20047;-52
2022/11/19 04:26:27;;;;;;;11.13;9.23;;;-0.80;99.90;;;;;;5068389;28;20465;-49
2022/11/19 04:28:52;;;;;;;12.95;9.68;;;-0.80;99.90;;;;;;5067683;28;20057;-50
2022/11/19 04:31:18;;;;;;;13.20;9.45;;;-0.90;99.90;;;;;;5047998;28;20383;-49
2022/11/19 04:33:44;;;;;;;11.98;8.95;;;-0.90;99.90;;;;;;5069370;28;20033;-51
2022/11/19 04:36:09;;;;;;;12.05;8.98;;;-0.90;99.90;;;;;;5051789;28;20066;-50
2022/11/19 04:38:35;;;;;;;12.02;8.55;;;-0.90;99.90;;;;;;5069006;28;20033;-51
2022/11/19 04:41:01;;;;;;;9.27;6.55;;;-1.00;99.90;;;;;;5068070;28;20036;-50
2022/11/19 04:43:26;;;;;;;8.48;6.20;;;-1.00;99.90;;;;;;5067407;28;20127;-51
2022/11/19 04:45:52;;;;;;;10.55;8.20;;;-1.00;99.90;;;;;;5066620;28;20033;-49
2022/11/19 04:48:17;;;;;;;8.98;6.93;;;-1.00;99.90;;;;;;5070086;28;20049;-51
2022/11/19 04:50:43;;;;;;;13.52;9.68;;;-1.00;99.90;;;;;;5069186;28;20490;-49
2022/11/19 04:53:08;;;;;;;11.30;7.93;;;-1.00;99.90;;;;;;5062383;28;20040;-51
2022/11/19 04:55:34;;;;;;;10.60;7.75;;;-1.00;99.90;;;;;;5056192;28;20045;-50
2022/11/19 04:58:00;;;;;;;10.25;8.05;;;-1.10;99.90;;;;;;5041756;28;20100;-53
2022/11/19 05:00:25;;;;;;;11.13;8.30;;;-1.10;99.90;;;;;;5056217;28;20098;-49
2022/11/19 05:02:51;;;;;;;10.93;8.27;;;-1.10;99.90;;;;;;5056951;28;20458;-52
2022/11/19 05:05:16;;;;;;;10.60;6.82;;;-1.10;99.90;;;;;;5054794;28;20041;-49
2022/11/19 05:07:42;;;;;;;13.35;8.95;;;-1.20;99.90;;;;;;5055495;28;20037;-53
2022/11/19 05:10:08;;;;;;;12.63;7.53;;;-1.10;99.90;;;;;;5055991;28;20033;-54
2022/11/19 05:12:34;;;;;;;12.32;8.75;;;-1.10;99.90;;;;;;5063055;28;20032;-49
2022/11/19 05:14:59;;;;;;;13.10;8.65;;;-1.20;99.90;;;;;;5056896;28;20048;-55
2022/11/19 05:17:25;;;;;;;10.40;7.00;;;-1.20;99.90;;;;;;5055349;28;20101;-50
2022/11/19 05:19:50;;;;;;;9.95;7.22;;;-1.20;99.90;;;;;;5054446;28;20044;-51
2022/11/19 05:22:16;;;;;;;12.30;7.35;;;-1.20;99.90;;;;;;5045195;28;20615;-53
2022/11/19 05:24:41;;;;;;;8.95;6.82;;;-1.20;99.90;;;;;;5059889;28;20044;-49
2022/11/19 05:27:07;;;;;;;12.85;9.95;;;-1.20;99.90;;;;;;5058334;28;20047;-54
2022/11/19 05:29:33;;;;;;;11.88;8.77;;;-1.30;99.90;;;;;;5058168;28;20634;-53
2022/11/19 05:31:59;;;;;;;10.80;7.22;;;-1.30;99.90;;;;;;5059664;28;20039;-49
2022/11/19 05:34:24;;;;;;;10.85;8.63;;;-1.30;99.90;;;;;;5056342;28;20048;-52
2022/11/19 05:36:50;;;;;;;12.50;9.27;;;-1.30;99.90;;;;;;5060357;28;20056;-49
2022/11/19 05:39:15;;;;;;;11.75;8.55;;;-1.30;99.90;;;;;;5059413;28;20124;-51
2022/11/19 05:41:41;;;;;;;13.40;7.13;;;-1.40;99.90;;;;;;5061915;28;20482;-53
2022/11/19 05:44:07;;;;;;;10.23;7.30;;;-1.40;99.90;;;;;;5061588;28;20040;-50
2022/11/19 05:46:32;;;;;;;10.73;8.23;;;-1.40;99.90;;;;;;5057471;28;20076;-49
2022/11/19 05:48:58;;;;;;;10.48;8.00;;;-1.40;99.90;;;;;;5060965;28;20040;-50
2022/11/19 05:51:23;;;;;;;9.32;6.90;;;-1.50;99.90;;;;;;5060134;28;20563;-50
2022/11/19 05:53:49;;;;;;;11.88;9.02;;;-1.50;99.90;;;;;;5059266;28;20062;-53
2022/11/19 05:56:15;;;;;;;11.10;8.38;;;-1.50;99.90;;;;;;5058336;28;20048;-54
2022/11/19 05:58:40;;;;;;;11.70;8.80;;;-1.50;99.90;;;;;;5059958;28;20045;-53
2022/11/19 06:01:06;;;;;;;13.55;9.93;;;-1.50;99.90;;;;;;5059222;28;20048;-51
2022/11/19 06:03:31;;;;;;;14.05;9.90;;;-1.50;99.90;;;;;;5058601;28;20099;-53
2022/11/19 06:05:57;;;;;;;11.15;8.18;;;-1.50;99.90;;;;;;5041635;28;20044;-52
2022/11/19 06:08:23;;;;;;;11.73;7.75;;;-1.60;99.90;;;;;;5058953;28;20048;-52
2022/11/19 06:10:48;;;;;;;13.45;9.98;;;-1.60;99.90;;;;;;5065072;28;20036;-53
2022/11/19 06:13:14;;;;;;;11.05;8.90;;;-1.60;99.90;;;;;;5075033;28;20391;-50
2022/11/19 06:15:40;;;;;;;13.57;10.23;;;-1.60;99.90;;;;;;5067607;28;20067;-51
2022/11/19 06:18:05;;;;;;;11.25;8.13;;;-1.60;99.90;;;;;;5067966;28;20040;-50
2022/11/19 06:20:31;;;;;;;11.20;8.77;;;-1.60;99.90;;;;;;5065165;28;21986;-51
2022/11/19 06:22:56;;;;;;;11.40;9.05;;;-1.60;99.90;;;;;;5068245;28;20047;-52
2022/11/19 06:25:22;;;;;;;13.95;10.65;;;-1.60;99.90;;;;;;5063030;28;20569;-54
2022/11/19 06:27:48;;;;;;;14.10;10.55;;;-1.60;99.90;;;;;;5062539;28;20089;-51
2022/11/19 06:30:15;;;;;;;12.75;10.23;;;-1.60;99.90;;;;;;5066345;28;20489;-49
2022/11/19 06:32:41;;;;;;;13.77;9.98;;;-1.70;99.90;;;;;;5067746;28;20052;-49
2022/11/19 06:35:07;;;;;;;14.40;11.45;;;-1.70;99.90;;;;;;5069247;28;20107;-50
2022/11/19 06:37:33;;;;;;;13.32;10.18;;;-1.70;99.90;;;;;;5069946;28;20041;-49
2022/11/19 06:39:59;;;;;;;13.75;9.40;;;-1.70;99.90;;;;;;5068722;28;20040;-52
2022/11/19 06:42:37;;;;;;;17.73;11.13;;;-1.70;99.90;;;;;;5070063;28;20090;-49
2022/11/19 06:45:06;;;;;;;16.13;11.18;;;-1.70;99.90;;;;;;5065048;28;20039;-51
2022/11/19 06:47:32;;;;;;;13.38;9.63;;;-1.70;99.90;;;;;;5066773;28;20406;-49
2022/11/19 06:49:58;;;;;;;11.00;8.82;;;-1.70;99.90;;;;;;5068408;28;20061;-51
2022/11/19 06:52:24;;;;;;;15.13;11.52;;;-1.70;99.90;;;;;;5058194;28;20744;-49
2022/11/19 06:54:49;;;;;;;15.77;10.10;;;-1.70;99.90;;;;;;5060672;28;20047;-49
2022/11/19 06:57:15;;;;;;;11.55;8.15;;;-1.70;99.90;;;;;;5059789;28;20270;-50
2022/11/19 06:59:40;;;;;;;14.25;11.35;;;-1.70;99.90;;;;;;5060835;28;20401;-53
2022/11/19 07:02:07;;;;;;;12.95;10.70;;;-1.80;99.90;;;;;;5056876;28;20382;-51
2022/11/19 07:04:32;;;;;;;13.32;9.95;;;-1.80;99.90;;;;;;5055987;28;20049;-49
2022/11/19 07:06:58;;;;;;;12.25;8.57;;;-1.70;99.90;;;;;;5061203;28;20041;-50
2022/11/19 07:09:24;;;;;;;15.23;11.43;;;-1.80;99.90;;;;;;5062407;28;20041;-50
2022/11/19 07:11:49;;;;;;;12.35;8.63;;;-1.70;99.90;;;;;;5044671;28;20064;-50
2022/11/19 07:14:15;;;;;;;11.13;7.63;;;-1.80;99.90;;;;;;5064294;28;20468;-53
2022/11/19 07:16:40;;;;;;;14.40;9.70;;;-1.70;99.90;;;;;;5064949;28;20055;-49
2022/11/19 07:19:07;;;;;;;15.93;10.75;;;-1.70;99.90;;;;;;5063259;28;20051;-51
2022/11/19 07:21:33;;;;;;;13.10;9.82;;;-1.70;99.90;;;;;;5027491;28;21633;-53
2022/11/19 07:24:00;;;;;;;11.77;9.68;;;-1.70;99.90;;;;;;5028291;28;20044;-50
2022/11/19 07:26:26;;;;;;;12.93;9.45;;;-1.70;99.90;;;;;;5061343;28;20553;-52
2022/11/19 07:28:52;;;;;;;14.40;10.30;;;-1.70;99.90;;;;;;5067562;28;20127;-48
2022/11/19 07:31:18;;;;;;;14.07;10.63;;;-1.70;99.90;;;;;;5066862;28;20067;-52
2022/11/19 07:33:43;;;;;;;10.10;7.70;;;-1.70;99.90;;;;;;5068863;28;20036;-50
2022/11/19 07:36:10;;;;;;;14.05;9.95;;;-1.70;99.90;;;;;;5067261;28;20501;-50
2022/11/19 07:38:37;;;;;;;14.32;10.55;;;-1.70;99.90;;;;;;5062779;28;20075;-49
2022/11/19 07:43:48;;;;;;;10.90;8.13;;;-1.70;99.90;;;;;;5071791;28;20045;-50
2022/11/19 07:46:13;;;;;;;10.23;8.38;;;-1.60;99.90;;;;;;5069960;28;20051;-48
2022/11/19 07:48:39;;;;;;;13.77;10.93;;;-1.50;99.90;;;;;;5070697;28;20063;-49
2022/11/19 07:51:05;;;;;;;11.50;6.90;;;-1.60;99.90;;;;;;5051230;28;20098;-50
2022/11/19 07:53:30;;;;;;;12.55;9.23;;;-1.50;99.90;;;;;;5067481;28;20060;-48
2022/11/19 07:55:59;;;;;;;9.65;6.95;;;-1.50;99.90;;;;;;5063367;28;20044;-48
2022/11/19 07:58:25;;;;;;;10.10;8.18;;;-1.50;99.90;;;;;;5069105;28;20065;-49
2022/11/19 08:00:50;;;;;;;10.57;8.57;;;-1.40;99.90;;;;;;5069714;28;20087;-50
2022/11/19 08:03:16;;;;;;;11.35;8.80;;;-1.30;99.90;;;;;;5061095;28;21969;-49
2022/11/19 08:05:41;;;;;;;11.55;6.60;;;-1.30;99.90;;;;;;5059964;28;20041;-51
2022/11/19 08:08:07;;;;;;;11.13;9.10;;;-1.30;99.90;;;;;;5041239;28;20124;-50
2022/11/19 08:10:33;;;;;;;9.77;6.38;;;-1.30;99.90;;;;;;5061884;28;20040;-49
2022/11/19 08:13:02;;;;;;;13.98;10.52;;;-1.20;99.90;;;;;;5064943;28;20086;-50
2022/11/19 08:15:32;;;;;;;9.02;7.18;;;-1.20;99.90;;;;;;5063326;28;20039;-52
2022/11/19 08:18:17;;;;;;;9.90;7.93;;;-1.20;99.90;;;;;;5065649;28;20053;-49
2022/11/19 08:20:44;;;;;;;12.63;10.02;;;-1.10;99.90;;;;;;5065369;28;20040;-48
2022/11/19 08:23:10;;;;;;;13.30;9.35;;;-1.10;99.90;;;;;;5060967;28;20036;-49
2022/11/19 08:25:36;;;;;;;13.40;10.73;;;-1.10;99.90;;;;;;5068292;28;20127;-50
2022/11/19 08:28:03;;;;;;;12.75;10.02;;;-1.00;99.90;;;;;;5071418;28;20091;-49
2022/11/19 08:30:30;;;;;;;11.43;7.55;;;-1.00;99.90;;;;;;5073770;28;20040;-50
2022/11/19 08:32:55;;;;;;;8.50;7.07;;;-1.00;99.90;;;;;;5073073;28;20049;-50
2022/11/19 08:35:21;;;;;;;11.73;9.38;;;-1.00;99.90;;;;;;5072892;28;20515;-52
2022/11/19 08:37:47;;;;;;;10.88;9.25;;;-0.90;99.90;;;;;;5074758;28;20082;-54
2022/11/19 08:40:13;;;;;;;11.63;9.20;;;-0.90;99.90;;;;;;5074991;28;20063;-51
2022/11/19 08:45:22;;;;;;;11.93;8.68;;;-0.80;99.90;;;;;;5072092;28;20060;-54
2022/11/19 08:47:48;;;;;;;11.77;8.52;;;-0.70;99.90;;;;;;5072701;28;20466;-52
2022/11/19 08:50:14;;;;;;;10.88;8.80;;;-0.60;99.90;;;;;;5070757;28;20040;-54
2022/11/19 08:52:40;;;;;;;11.85;8.52;;;-0.60;99.90;;;;;;5068413;28;20397;-51
2022/11/19 08:55:07;;;;;;;11.80;9.80;;;-0.60;99.90;;;;;;5072646;28;20036;-51
2022/11/19 08:57:32;;;;;;;10.38;8.68;;;-0.50;99.90;;;;;;5070732;28;20047;-54
2022/11/19 08:59:58;;;;;;;8.95;7.57;;;-0.40;99.90;;;;;;5073012;28;20481;-50
2022/11/19 09:02:23;;;;;;;12.88;9.55;;;-0.40;99.90;;;;;;5070451;28;20067;-49
2022/11/19 09:04:49;;;;;;;12.48;8.95;;;-0.30;99.90;;;;;;5071955;28;20036;-50
2022/11/19 09:07:15;;;;;;;9.75;7.70;;;-0.20;99.90;;;;;;5071582;28;20078;-49
2022/11/19 09:09:40;;;;;;;9.27;7.80;;;-0.10;99.90;;;;;;5072449;28;20044;-49
2022/11/19 09:12:06;;;;;;;10.75;8.75;;;-0.10;99.90;;;;;;5070322;28;20116;-51
2022/11/19 09:14:32;;;;;;;10.45;8.05;;;0.00;99.90;;;;;;5072010;28;20486;-50
2022/11/19 09:16:57;;;;;;;10.57;9.38;;;0.00;99.90;;;;;;5057950;28;20080;-52
2022/11/19 09:19:23;;;;;;;11.77;8.70;;;0.10;99.90;;;;;;5066799;28;20051;-53
2022/11/19 09:21:49;;;;;;;10.07;6.70;;;0.10;99.90;;;;;;5071073;28;20072;-51
2022/11/19 09:24:14;;;;;;;9.13;7.95;;;0.20;99.90;;;;;;5068992;28;20397;-52
2022/11/19 09:26:40;;;;;;;8.90;8.00;;;0.20;99.90;;;;;;5038966;28;20537;-53
2022/11/19 09:29:05;;;;;;;9.50;8.40;;;0.30;99.90;;;;;;5064967;28;20056;-50
2022/11/19 09:31:31;;;;;;;8.02;7.07;;;0.30;99.90;;;;;;5072292;28;20029;-52
2022/11/19 09:33:56;;;;;;;10.30;8.43;;;0.30;99.90;;;;;;5072258;28;20072;-50
2022/11/19 09:36:22;;;;;;;8.43;6.97;;;0.30;99.90;;;;;;5063158;28;20144;-50
2022/11/19 09:38:48;;;;;;;10.25;8.20;;;0.40;99.90;;;;;;5065385;28;20047;-54
2022/11/19 09:41:37;;;;;;;11.40;8.20;;;0.40;99.90;;;;;;5070829;28;20055;-54
2022/11/19 09:44:28;;;;;;;7.78;6.72;;;0.50;99.90;;;;;;5070100;28;20084;-51
2022/11/19 09:47:03;;;;;;;8.80;7.47;;;0.50;99.90;;;;;;5070286;28;20037;-51
2022/11/19 09:50:01;;;;;;;8.88;7.75;;;0.60;99.90;;;;;;5072177;28;20478;-54
2022/11/19 09:52:32;;;;;;;7.45;5.65;;;0.60;99.90;;;;;;5069573;28;20055;-51
2022/11/19 09:54:59;;;;;;;8.05;7.05;;;0.70;99.90;;;;;;5070154;28;20098;-52
2022/11/19 09:57:38;;;;;;;7.90;7.10;;;0.70;99.90;;;;;;5069821;28;20450;-52
2022/11/19 10:00:05;;;;;;;8.25;5.93;;;0.80;99.90;;;;;;5070313;28;20041;-53
2022/11/19 10:02:31;;;;;;;7.93;7.03;;;0.80;99.90;;;;;;5070189;28;20107;-55
2022/11/19 10:04:57;;;;;;;9.00;7.60;;;0.80;99.90;;;;;;5071702;28;20543;-51
2022/11/19 10:07:43;;;;;;;7.78;6.97;;;0.90;99.90;;;;;;5069534;28;20041;-53
2022/11/19 10:10:21;;;;;;;9.07;7.25;;;1.00;99.90;;;;;;5070946;28;20036;-52
2022/11/19 10:12:49;;;;;;;7.93;7.00;;;1.00;99.90;;;;;;5071270;28;20151;-51
2022/11/19 10:15:25;;;;;;;8.07;6.03;;;1.10;99.90;;;;;;5071817;28;20049;-51
2022/11/19 10:17:56;;;;;;;10.50;7.22;;;1.10;99.90;;;;;;5071009;28;20389;-51
2022/11/19 10:21:06;;;;;;;8.10;6.82;;;1.20;99.90;;;;;;5054070;28;20037;-51
2022/11/19 10:23:48;;;;;;;4.78;4.10;;;1.20;99.90;;;;;;5052279;28;20136;-54
2022/11/19 10:26:17;;;;;;;7.97;7.10;;;1.30;99.90;;;;;;5070558;28;20049;-52
2022/11/19 10:28:47;;;;;;;;;;;1.30;99.90;;;;;;5071487;28;20045;-53
2022/11/19 10:31:35;;;;;;;5.70;4.78;;;1.40;99.90;;;;;;5072242;28;20312;-52
2022/11/19 10:34:13;;;;;;;7.82;6.78;;;1.50;99.90;;;;;;5069145;28;20098;-51
2022/11/19 10:36:46;;;;;;;6.22;5.10;;;1.50;99.90;;;;;;5073948;28;20040;-53
2022/11/19 10:39:31;;;;;;;7.65;6.30;;;1.50;99.90;;;;;;5074880;28;20037;-52
2022/11/19 10:42:27;;;;;;;7.72;6.78;;;1.50;99.90;;;;;;5073630;28;20377;-52
2022/11/19 10:45:17;;;;;;;7.47;6.25;;;1.50;99.90;;;;;;5074212;28;20040;-55
2022/11/19 10:48:19;;;;;;;6.97;6.20;;;1.60;99.90;;;;;;5072798;28;20036;-55
2022/11/19 10:50:45;;;;;;;6.93;5.82;;;1.60;99.90;;;;;;5075178;28;20052;-54
2022/11/19 10:53:21;;;;;;;11.68;7.22;;;1.70;99.90;;;;;;5068571;28;20127;-50
2022/11/19 10:55:52;;;;;;;7.20;5.60;;;1.70;99.90;;;;;;5075029;28;20044;-51
2022/11/19 10:58:44;;;;;;;8.57;6.63;;;1.70;99.90;;;;;;5070803;28;20044;-53
2022/11/19 11:01:31;;;;;;;6.85;6.15;;;1.80;99.90;;;;;;5073882;28;20505;-51
2022/11/19 11:04:10;;;;;;;6.63;5.93;;;1.90;99.90;;;;;;5072502;28;20051;-52
2022/11/19 11:07:05;;;;;;;6.78;5.90;;;1.90;99.90;;;;;;5069006;28;20052;-51
2022/11/19 11:09:38;;;;;;;5.82;5.25;;;2.00;99.90;;;;;;5042059;28;20190;-53
2022/11/19 11:15:14;;;;;;;7.10;5.50;;;2.10;99.90;;;;;;5075090;28;20092;-52
2022/11/19 11:17:41;;;;;;;6.20;5.60;;;2.10;99.90;;;;;;5073501;28;20041;-51
2022/11/19 11:20:12;;;;;;;7.10;5.82;;;2.10;99.90;;;;;;5073261;28;20351;-52
2022/11/19 11:22:38;;;;;;;7.00;5.90;;;2.30;99.90;;;;;;5073327;28;20082;-54
2022/11/19 11:25:20;;;;;;;6.50;5.80;;;2.40;99.90;;;;;;5073381;28;20057;-50
2022/11/19 11:28:06;;;;;;;5.50;4.95;;;2.50;99.90;;;;;;5066656;28;20055;-50
2022/11/19 11:30:32;;;;;;;6.47;5.30;;;2.50;99.90;;;;;;5072222;28;20078;-53
2022/11/19 11:33:24;;;;;;;6.80;5.32;;;2.40;99.90;;;;;;5072973;28;20042;-50
2022/11/19 11:35:53;;;;;;;7.22;6.30;;;2.50;99.90;;;;;;5071466;28;20457;-52
2022/11/19 11:38:22;;;;;;;6.93;6.22;;;2.60;99.90;;;;;;5073486;28;20045;-52
2022/11/19 11:41:07;;;;;;;6.60;5.90;;;2.60;99.90;;;;;;5071981;28;20494;-54
2022/11/19 11:43:34;;;;;;;7.18;5.78;;;2.70;99.90;;;;;;5073370;28;20048;-53
2022/11/19 11:46:03;;;;;;;6.72;5.82;;;2.70;99.90;;;;;;5071252;28;20040;-52
2022/11/19 11:48:49;;;;;;;5.25;4.68;;;2.70;99.90;;;;;;5072937;28;20048;-51
2022/11/19 11:51:32;;;;;;;5.93;5.40;;;2.70;99.90;;;;;;5073061;28;20055;-53
2022/11/19 11:54:06;;;;;;;6.80;4.72;;;2.80;99.90;;;;;;5062581;28;20048;-53
2022/11/19 11:56:31;;;;;;;7.22;5.13;;;2.80;99.90;;;;;;5065489;28;20379;-53
2022/11/19 11:59:27;;;;;;;5.07;4.57;;;;;;;;;;5071122;28;20040;-52
2022/11/19 12:02:01;;;;;;;6.22;5.35;;;2.80;99.90;;;;;;5055742;28;20171;-50
2022/11/19 12:04:27;;;;;;;5.82;5.22;;;2.90;99.90;;;;;;5074090;28;20043;-53
2022/11/19 12:07:29;;;;;;;5.38;4.88;;;2.80;99.90;;;;;;5069209;28;20040;-50
2022/11/19 12:10:10;;;;;;;5.13;4.63;;;2.90;99.90;;;;;;5054434;28;20053;-53
2022/11/19 12:12:44;;;;;;;6.53;4.30;;;3.00;99.90;;;;;;5071916;28;20080;-51
2022/11/19 12:15:42;;;;;;;5.90;4.75;;;3.00;99.90;;;;;;5074510;28;20045;-52
2022/11/19 12:18:10;;;;;;;;;;;2.90;99.90;;;;;;5071850;28;20047;-50
2022/11/19 12:20:48;;;;;;;5.72;4.20;;;3.00;99.90;;;;;;5073988;28;19974;-50
2022/11/19 12:23:27;;;;;;;5.03;4.53;;;3.10;99.90;;;;;;5053980;28;20048;-51
2022/11/19 12:26:02;;;;;;;;;;;3.10;99.90;;;;;;5073321;28;20048;-50
2022/11/19 12:28:45;;;;;;;4.35;3.92;;;3.10;99.90;;;;;;5072792;28;20286;-49
2022/11/19 12:31:17;;;;;;;4.57;4.00;;;3.10;99.90;;;;;;5070346;28;20139;-51
2022/11/19 12:34:07;;;;;;;3.65;3.35;;;3.10;99.90;;;;;;5072959;28;20048;-49
2022/11/19 12:37:34;;;;;;;5.05;4.07;;;3.10;99.90;;;;;;5072420;28;20055;-52
2022/11/19 12:40:26;;;;;;;4.45;4.05;;;3.10;99.90;;;;;;4973008;28;20167;-52
2022/11/19 12:43:06;;;;;;;5.07;3.75;;;3.10;99.90;;;;;;4979829;28;20116;-49
2022/11/19 12:45:58;;;;;;;4.85;4.45;;;3.10;99.90;;;;;;4977744;28;20058;-53
2022/11/19 12:48:36;;;;;;;5.65;4.68;;;3.10;99.90;;;;;;4982279;28;20053;-54
2022/11/19 12:51:28;;;;;;;6.10;5.13;;;3.20;99.90;;;;;;4984807;28;20046;-53
2022/11/19 12:53:56;;;;;;;6.95;5.50;;;3.10;99.90;;;;;;4969841;28;20050;-49
2022/11/19 12:56:45;;;;;;;5.78;5.20;;;3.20;99.90;;;;;;4980169;28;20050;-53
2022/11/19 12:59:25;;;;;;;6.28;4.50;;;3.20;99.90;;;;;;4965011;28;20174;-51
2022/11/19 13:01:54;;;;;;;5.35;4.85;;;3.20;99.90;;;;;;4970292;28;20046;-50
2022/11/19 13:04:41;;;;;;;5.95;5.32;;;3.10;99.90;;;;;;4980062;28;20054;-50
2022/11/19 13:07:22;;;;;;;5.13;4.63;;;3.10;99.90;;;;;;4969352;28;20511;-51
2022/11/19 13:09:59;;;;;;;5.70;5.13;;;3.10;99.90;;;;;;4968645;28;20109;-52
2022/11/19 13:12:37;;;;;;;5.38;4.88;;;3.20;99.90;;;;;;5058619;28;20048;-52
2022/11/19 13:15:27;;;;;;;6.47;4.07;;;3.30;99.90;;;;;;5072281;28;20123;-50
2022/11/19 13:17:56;;;;;;;5.07;4.50;;;3.20;99.90;;;;;;5071238;28;20060;-54
2022/11/19 13:20:31;;;;;;;4.45;3.88;;;3.20;99.90;;;;;;5072640;28;20048;-53
2022/11/19 13:23:03;;;;;;;4.57;4.13;;;3.20;99.90;;;;;;5071060;28;20466;-52
2022/11/19 13:25:34;;;;;;;5.40;3.97;;;3.20;99.90;;;;;;5072001;28;20053;-52
2022/11/19 13:28:02;;;;;;;4.65;3.40;;;3.20;99.90;;;;;;5069955;28;20478;-50
2022/11/19 13:30:28;;;;;;;;;;;3.10;99.90;;;;;;5071696;28;20371;-50
2022/11/19 13:33:18;;;;;;;4.32;3.45;;;3.10;99.90;;;;;;5070745;28;20396;-51
2022/11/19 13:36:02;;;;;;;6.53;5.25;;;3.10;99.90;;;;;;5056695;28;20074;-49
2022/11/19 13:39:10;;;;;;;5.07;4.63;;;3.10;99.90;;;;;;5070202;28;20037;-50